Time;durP1;ratioP1;P1;durP2;ratioP2;P2;SDS_P1;SDS_P2;PMS_P1;PMS_P2;Temp;Humidity;BMP_temperature;BMP_pressure;BME280_temperature;BME280_humidity;BME280_pressure;Samples;Min_cycle;Max_cycle;Signal;HPM_P1;HPM_P2
2023/08/25 00:01:17;;;;;;;10.70;5.90;;;;;;;20.11;55.19;100537.27;105716;1249;60447;-67
2023/08/25 00:03:44;;;;;;;9.00;5.50;;;;;;;20.10;55.16;100536.09;105856;1254;65040;-67
2023/08/25 00:06:11;;;;;;;10.00;6.00;;;;;;;20.10;55.58;100530.23;105567;1251;62375;-69
2023/08/25 00:08:38;;;;;;;10.50;6.80;;;;;;;20.10;55.59;100527.28;105747;1251;63823;-67
2023/08/25 00:11:05;;;;;;;10.40;6.00;;;;;;;20.07;55.66;100529.05;105813;1250;60423;-67
2023/08/25 00:13:35;;;;;;;9.60;6.10;;;;;;;20.01;55.90;100535.88;105476;1250;60546;-60
2023/08/25 00:16:05;;;;;;;10.30;5.70;;;;;;;19.94;56.18;100528.16;105519;1252;66163;-59
2023/08/25 00:18:32;;;;;;;12.00;6.30;;;;;;;19.86;56.10;100521.63;105550;1250;71034;-67
2023/08/25 00:20:59;;;;;;;11.40;6.00;;;;;;;19.80;55.99;100523.25;105450;1250;64091;-68
2023/08/25 00:23:26;;;;;;;8.20;5.60;;;;;;;19.73;55.94;100522.84;106136;1250;60869;-69
2023/08/25 00:25:54;;;;;;;9.30;6.20;;;;;;;19.66;56.06;100518.58;105629;1251;60446;-67
2023/08/25 00:28:20;;;;;;;9.70;6.20;;;;;;;19.62;56.35;100508.98;105717;1254;65253;-59
2023/08/25 00:30:48;;;;;;;9.90;5.90;;;;;;;19.59;56.61;100508.19;105473;1251;61688;-59
2023/08/25 00:33:15;;;;;;;8.20;5.80;;;;;;;19.59;56.75;100508.48;105766;1250;63652;-60
2023/08/25 00:35:42;;;;;;;9.60;5.40;;;;;;;19.54;56.70;100504.20;105843;1251;60530;-63
2023/08/25 00:38:09;;;;;;;9.90;6.40;;;;;;;19.49;56.79;100500.01;106236;1250;60604;-61
2023/08/25 00:40:36;;;;;;;9.70;6.30;;;;;;;19.45;57.00;100499.83;106205;1253;65007;-61
2023/08/25 00:43:03;;;;;;;8.70;6.20;;;;;;;19.41;57.45;100498.48;106107;1256;60469;-61
2023/08/25 00:45:35;;;;;;;12.30;6.20;;;;;;;19.39;57.46;100494.20;106211;1250;63825;-64
2023/08/25 00:48:02;;;;;;;9.80;6.80;;;;;;;19.35;57.37;100487.83;105865;1251;60648;-61
2023/08/25 00:50:29;;;;;;;9.00;6.00;;;;;;;19.30;57.27;100485.27;106419;1250;60521;-63
2023/08/25 00:52:57;;;;;;;11.70;6.80;;;;;;;19.25;57.39;100486.70;106328;1256;65863;-61
2023/08/25 00:55:23;;;;;;;9.80;6.10;;;;;;;19.25;57.45;100483.21;106193;1256;61352;-65
2023/08/25 00:57:50;;;;;;;13.40;6.30;;;;;;;19.27;57.68;100480.45;106166;1258;64290;-62
2023/08/25 01:00:18;;;;;;;10.80;7.00;;;;;;;19.26;57.87;100478.52;109398;1250;59996;-62
2023/08/25 01:02:44;;;;;;;11.90;6.90;;;;;;;19.26;57.95;100478.99;108500;1250;59347;-61
2023/08/25 01:05:12;;;;;;;9.70;7.20;;;;;;;19.22;57.99;100478.33;105775;1256;65170;-63
2023/08/25 01:07:39;;;;;;;9.90;6.80;;;;;;;19.18;58.12;100474.61;106024;1254;61618;-62
2023/08/25 01:10:07;;;;;;;9.20;7.10;;;;;;;19.13;58.12;100474.95;106144;1253;63892;-62
2023/08/25 01:13:09;;;;;;;12.60;7.10;;;;;;;19.08;58.23;100478.17;106396;1251;60546;-63
2023/08/25 01:15:36;;;;;;;9.70;7.10;;;;;;;19.03;58.12;100475.73;105982;1252;60528;-62
2023/08/25 01:18:17;;;;;;;12.10;7.20;;;;;;;19.00;58.17;100470.20;106139;1251;63704;-61
2023/08/25 01:20:46;;;;;;;9.80;6.90;;;;;;;18.99;57.84;100471.80;105880;1251;60456;-62
2023/08/25 01:23:24;;;;;;;13.00;7.60;;;;;;;18.95;57.64;100478.95;105908;1251;64089;-59
2023/08/25 01:25:52;;;;;;;11.60;7.00;;;;;;;18.92;57.54;100481.61;106120;1251;60532;-65
2023/08/25 01:28:20;;;;;;;10.60;7.90;;;;;;;18.88;57.49;100477.95;106117;1252;60389;-59
2023/08/25 01:30:49;;;;;;;11.20;7.80;;;;;;;18.82;57.67;100481.80;105858;1254;65276;-59
2023/08/25 01:33:19;;;;;;;12.90;8.00;;;;;;;18.76;57.75;100484.91;105846;1253;62742;-59
2023/08/25 01:36:15;;;;;;;11.70;8.40;;;;;;;18.72;57.95;100482.77;105497;1258;62867;-60
2023/08/25 01:39:06;;;;;;;12.60;8.00;;;;;;;18.67;58.14;100482.09;105760;1250;60444;-58
2023/08/25 01:41:43;;;;;;;9.70;7.10;;;;;;;18.68;58.16;100483.91;105966;1251;60466;-59
2023/08/25 01:44:11;;;;;;;11.90;6.90;;;;;;;18.72;58.17;100483.13;105833;1252;64009;-57
2023/08/25 01:46:38;;;;;;;12.50;7.20;;;;;;;18.72;58.44;100480.43;105745;1250;61440;-61
2023/08/25 01:49:05;;;;;;;10.10;7.10;;;;;;;18.75;58.38;100482.05;105659;1250;64063;-58
2023/08/25 01:51:31;;;;;;;9.90;6.90;;;;;;;18.71;58.41;100480.70;105467;1256;60435;-58
2023/08/25 01:53:59;;;;;;;9.80;7.10;;;;;;;18.68;58.60;100481.81;105556;1251;60554;-55
2023/08/25 01:56:25;;;;;;;12.40;7.70;;;;;;;18.64;58.75;100484.08;105661;1252;65016;-58
2023/08/25 01:58:52;;;;;;;8.80;5.90;;;;;;;18.57;58.70;100488.50;105602;1250;62029;-59
2023/08/25 02:01:19;;;;;;;10.20;7.10;;;;;;;18.55;58.84;100486.04;105900;1251;64627;-62
2023/08/25 02:03:46;;;;;;;11.90;6.40;;;;;;;18.56;58.95;100485.23;106346;1253;60565;-62
2023/08/25 02:06:13;;;;;;;12.00;7.30;;;;;;;18.53;59.14;100486.85;106147;1256;60594;-61
2023/08/25 02:08:42;;;;;;;9.50;6.70;;;;;;;18.48;59.50;100488.25;105703;1256;65118;-59
2023/08/25 02:11:09;;;;;;;10.00;7.10;;;;;;;18.46;59.65;100490.13;105429;1250;61715;-59
2023/08/25 02:13:35;;;;;;;12.30;7.30;;;;;;;18.44;59.75;100486.21;105881;1253;65858;-59
2023/08/25 02:16:02;;;;;;;9.70;7.50;;;;;;;18.44;59.84;100486.11;105589;1251;60459;-61
2023/08/25 02:18:29;;;;;;;10.30;6.80;;;;;;;18.49;59.79;100489.96;105991;1253;60893;-61
2023/08/25 02:20:56;;;;;;;10.80;6.70;;;;;;;18.50;59.68;100489.52;106157;1255;65164;-61
2023/08/25 02:23:25;;;;;;;9.80;6.80;;;;;;;18.48;59.68;100486.68;105802;1251;61714;-63
2023/08/25 02:25:52;;;;;;;10.30;7.30;;;;;;;18.45;59.69;100490.36;105684;1248;64041;-62
2023/08/25 02:28:20;;;;;;;10.70;6.80;;;;;;;18.43;59.74;100496.48;105676;1254;60460;-62
2023/08/25 02:30:47;;;;;;;10.40;7.00;;;;;;;18.41;59.97;100496.54;105694;1250;59866;-63
2023/08/25 02:33:13;;;;;;;11.40;7.30;;;;;;;18.38;59.95;100496.35;105630;1254;65294;-60
2023/08/25 02:36:11;;;;;;;10.10;6.00;;;;;;;18.37;59.98;100495.17;105742;1255;60520;-62
2023/08/25 02:39:10;;;;;;;9.10;6.50;;;;;;;18.38;60.03;100496.61;105802;1250;64032;-61
2023/08/25 02:42:10;;;;;;;9.40;6.90;;;;;;;18.41;60.11;100491.23;105567;1251;60522;-62
2023/08/25 02:44:56;;;;;;;11.70;7.20;;;;;;;18.41;60.18;100491.78;105214;1251;60634;-60
2023/08/25 02:47:23;;;;;;;10.10;6.90;;;;;;;18.37;60.06;100493.19;105839;1256;65058;-62
2023/08/25 02:49:50;;;;;;;11.90;7.40;;;;;;;18.33;60.03;100492.36;106148;1251;60985;-62
2023/08/25 02:52:17;;;;;;;11.60;7.60;;;;;;;18.31;60.17;100490.54;105984;1250;64101;-62
2023/08/25 02:54:43;;;;;;;10.60;7.70;;;;;;;18.29;60.17;100494.27;106204;1250;60316;-62
2023/08/25 02:57:10;;;;;;;14.30;6.70;;;;;;;18.30;60.28;100497.93;106194;1251;60473;-61
2023/08/25 02:59:38;;;;;;;9.90;6.30;;;;;;;18.28;60.28;100497.90;105986;1255;65021;-57
2023/08/25 03:02:04;;;;;;;9.90;6.90;;;;;;;18.24;60.34;100501.95;105558;1250;61578;-62
2023/08/25 03:04:31;;;;;;;11.70;6.90;;;;;;;18.19;60.63;100506.72;105626;1250;63947;-60
2023/08/25 03:06:58;;;;;;;10.80;7.30;;;;;;;18.16;60.65;100505.79;105597;1250;60465;-61
2023/08/25 03:09:26;;;;;;;11.00;7.80;;;;;;;18.14;60.78;100509.29;105775;1251;60480;-60
2023/08/25 03:11:52;;;;;;;10.30;7.10;;;;;;;18.10;60.89;100508.63;106010;1254;65247;-58
2023/08/25 03:14:19;;;;;;;9.90;6.00;;;;;;;18.11;60.83;100507.50;105567;1250;61439;-58
2023/08/25 03:16:46;;;;;;;13.70;6.30;;;;;;;18.12;60.96;100508.10;105413;1260;64212;-60
2023/08/25 03:19:13;;;;;;;13.40;7.40;;;;;;;18.11;61.09;100518.65;105647;1251;60568;-59
2023/08/25 03:21:40;;;;;;;10.10;6.90;;;;;;;18.10;61.16;100517.69;105901;1251;60553;-66
2023/08/25 03:24:07;;;;;;;10.70;6.70;;;;;;;18.10;61.38;100519.12;105676;1256;65084;-57
2023/08/25 03:26:35;;;;;;;8.90;6.30;;;;;;;18.11;61.51;100521.48;105493;1256;60425;-61
2023/08/25 03:29:02;;;;;;;11.10;6.80;;;;;;;18.13;61.61;100525.05;105577;1256;63874;-60
2023/08/25 03:31:29;;;;;;;8.40;6.20;;;;;;;18.13;61.56;100523.98;105795;1251;60904;-60
2023/08/25 03:33:56;;;;;;;9.30;6.20;;;;;;;18.17;61.50;100527.59;106000;1251;60543;-61
2023/08/25 03:36:23;;;;;;;10.00;7.00;;;;;;;18.23;61.30;100523.09;105498;1256;65318;-63
2023/08/25 03:38:50;;;;;;;12.30;7.20;;;;;;;18.28;61.48;100523.67;105623;1252;61607;-65
2023/08/25 03:41:17;;;;;;;15.90;6.90;;;;;;;18.32;61.36;100524.83;106128;1252;64005;-63
2023/08/25 03:43:45;;;;;;;9.60;6.30;;;;;;;18.35;61.35;100531.46;105754;1251;60373;-66
2023/08/25 03:46:13;;;;;;;10.90;6.10;;;;;;;18.35;60.76;100534.63;106048;1253;60542;-65
2023/08/25 03:48:41;;;;;;;9.40;5.50;;;;;;;18.32;59.87;100539.39;105768;1251;65223;-66
2023/08/25 03:51:08;;;;;;;9.90;6.20;;;;;;;18.30;59.07;100541.55;105650;1251;61491;-65
2023/08/25 03:53:35;;;;;;;8.20;5.10;;;;;;;18.29;58.54;100545.62;105763;1255;63956;-57
2023/08/25 03:56:02;;;;;;;10.20;5.60;;;;;;;18.26;57.55;100552.48;105650;1252;61100;-63
2023/08/25 03:58:29;;;;;;;7.80;4.70;;;;;;;18.24;56.94;100555.23;106129;1251;60493;-69
2023/08/25 04:00:55;;;;;;;11.10;6.20;;;;;;;18.16;56.99;100557.85;105560;1256;64917;-56
2023/08/25 04:03:23;;;;;;;9.00;5.00;;;;;;;18.13;57.39;100559.79;105663;1253;61741;-59
2023/08/25 04:05:50;;;;;;;7.70;4.70;;;;;;;18.15;57.38;100561.02;105694;1256;63685;-60
2023/08/25 04:08:16;;;;;;;8.00;4.40;;;;;;;18.20;57.45;100561.52;105688;1251;62032;-66
2023/08/25 04:10:43;;;;;;;10.10;5.70;;;;;;;18.25;57.26;100563.60;105695;1254;60447;-62
2023/08/25 04:13:10;;;;;;;8.70;4.90;;;;;;;18.28;57.44;100567.02;105462;1254;64918;-59
2023/08/25 04:15:37;;;;;;;10.30;4.90;;;;;;;18.29;57.30;100567.99;105720;1250;61955;-62
2023/08/25 04:18:04;;;;;;;10.00;5.00;;;;;;;18.31;57.35;100570.05;106224;1256;64126;-63
2023/08/25 04:20:32;;;;;;;7.20;4.90;;;;;;;18.38;57.31;100569.88;107222;1251;60455;-65
2023/08/25 04:23:02;;;;;;;8.80;5.40;;;;;;;18.42;57.13;100574.38;105665;1250;60469;-59
2023/08/25 04:25:29;;;;;;;8.00;5.20;;;;;;;18.46;56.95;100582.64;105791;1249;65048;-63
2023/08/25 04:27:59;;;;;;;10.70;4.90;;;;;;;18.54;56.69;100583.37;105684;1250;61546;-63
2023/08/25 04:30:26;;;;;;;8.70;4.90;;;;;;;18.65;56.29;100580.90;105696;1255;63878;-62
2023/08/25 04:32:55;;;;;;;9.50;5.50;;;;;;;18.77;56.23;100583.64;105443;1250;60503;-60
2023/08/25 04:35:23;;;;;;;9.10;5.40;;;;;;;18.89;55.89;100587.89;105612;1253;60553;-62
2023/08/25 04:37:50;;;;;;;9.90;5.40;;;;;;;18.97;55.72;100584.50;106171;1256;64870;-60
2023/08/25 04:40:18;;;;;;;8.20;5.70;;;;;;;19.04;55.51;100585.10;106189;1259;61372;-60
2023/08/25 04:42:45;;;;;;;11.50;5.20;;;;;;;19.11;55.10;100583.84;105894;1256;63794;-60
2023/08/25 04:45:12;;;;;;;8.40;4.90;;;;;;;19.16;55.07;100587.30;106236;1251;61280;-61
2023/08/25 04:47:40;;;;;;;7.20;4.60;;;;;;;19.19;54.91;100589.81;106156;1250;60336;-63
2023/08/25 04:50:07;;;;;;;13.00;4.90;;;;;;;19.24;54.78;100591.24;106126;1256;64985;-61
2023/08/25 04:52:34;;;;;;;11.90;5.30;;;;;;;19.28;54.76;100587.69;105842;1256;61733;-61
2023/08/25 04:55:05;;;;;;;9.80;4.80;;;;;;;19.34;54.79;100588.28;105713;1254;62438;-61
2023/08/25 04:57:31;;;;;;;8.10;4.40;;;;;;;19.45;54.52;100584.42;105761;1252;61076;-61
2023/08/25 04:59:59;;;;;;;9.60;5.20;;;;;;;19.57;54.42;100582.98;105824;1251;60548;-54
2023/08/25 05:02:30;;;;;;;8.20;4.80;;;;;;;19.69;54.35;100580.04;105765;1251;65332;-54
2023/08/25 05:04:57;;;;;;;11.90;5.50;;;;;;;19.80;54.32;100580.91;105573;1251;61703;-56
2023/08/25 05:07:25;;;;;;;10.30;4.80;;;;;;;19.91;54.02;100579.87;105845;1254;70868;-62
2023/08/25 05:09:53;;;;;;;9.30;4.90;;;;;;;20.00;53.75;100584.90;105779;1250;60476;-55
2023/08/25 05:12:20;;;;;;;7.30;4.50;;;;;;;20.08;53.46;100584.33;106135;1251;60427;-58
2023/08/25 05:14:47;;;;;;;9.00;4.90;;;;;;;20.14;53.27;100580.50;105600;1251;65658;-57
2023/08/25 05:17:14;;;;;;;9.00;4.90;;;;;;;20.22;53.12;100579.44;105717;1252;61695;-56
2023/08/25 05:19:43;;;;;;;13.80;5.20;;;;;;;20.29;52.99;100577.86;105923;1251;64139;-56
2023/08/25 05:22:10;;;;;;;8.10;5.10;;;;;;;20.36;52.97;100577.52;105673;1254;60902;-60
2023/08/25 05:24:37;;;;;;;9.80;4.60;;;;;;;20.44;52.56;100574.21;105684;1250;60553;-55
2023/08/25 05:27:04;;;;;;;8.20;4.50;;;;;;;20.48;52.10;100570.42;105635;1256;65250;-55
2023/08/25 05:29:31;;;;;;;9.50;5.20;;;;;;;20.52;51.81;100567.30;105752;1250;70811;-53
2023/08/25 05:32:01;;;;;;;11.50;5.10;;;;;;;20.55;51.91;100564.96;105531;1253;63730;-62
2023/08/25 05:34:39;;;;;;;7.70;4.40;;;;;;;20.64;52.06;100565.27;106548;1250;60465;-63
2023/08/25 05:37:07;;;;;;;7.90;4.40;;;;;;;20.72;52.05;100571.68;106170;1251;59372;-57
2023/08/25 05:39:34;;;;;;;8.00;4.50;;;;;;;20.81;51.98;100571.31;105230;1250;235570;-55
2023/08/25 05:54:12;;;;;;;10.40;4.50;;;;;;;21.59;50.44;100563.25;103011;1285;613600;-57
2023/08/25 05:56:40;;;;;;;8.90;4.10;;;;;;;22.01;49.54;100562.36;104080;1273;174808;-57
2023/08/25 05:59:07;;;;;;;12.40;5.10;;;;;;;22.11;49.46;100562.32;104252;1266;59272;-55
2023/08/25 06:01:35;;;;;;;8.30;4.20;;;;;;;22.20;49.44;100558.35;104293;1266;62046;-53
2023/08/25 06:04:03;;;;;;;8.40;4.60;;;;;;;22.27;49.09;100560.73;108430;1266;62119;-53
2023/08/25 06:06:31;;;;;;;8.30;3.90;;;;;;;22.33;48.58;100559.76;108423;1266;62443;-54
2023/08/25 06:08:58;;;;;;;10.00;4.60;;;;;;;22.37;48.53;100557.80;104905;1266;59310;-64
2023/08/25 06:11:26;;;;;;;7.00;3.60;;;;;;;22.42;48.89;100556.27;104279;1270;59495;-60
2023/08/25 06:13:53;;;;;;;7.10;3.90;;;;;;;22.49;48.97;100556.84;104403;1266;62083;-56
2023/08/25 06:16:21;;;;;;;8.20;4.30;;;;;;;22.57;48.87;100556.89;104477;1266;60253;-53
2023/08/25 06:18:49;;;;;;;7.00;4.20;;;;;;;22.65;48.81;100551.98;104360;1269;71575;-56
2023/08/25 06:21:17;;;;;;;8.40;4.00;;;;;;;22.71;48.83;100552.22;104656;1260;59833;-55
2023/08/25 06:23:44;;;;;;;6.80;3.60;;;;;;;22.77;48.93;100554.60;104769;1256;59754;-56
2023/08/25 06:26:12;;;;;;;9.30;4.20;;;;;;;22.83;48.77;100552.77;104754;1260;64510;-58
2023/08/25 06:28:40;;;;;;;9.70;3.80;;;;;;;22.89;48.84;100553.33;108784;1262;61373;-59
2023/08/25 06:31:08;;;;;;;7.20;3.80;;;;;;;22.95;48.63;100557.16;108735;1256;62494;-54
2023/08/25 06:33:36;;;;;;;11.30;4.70;;;;;;;23.03;48.72;100559.17;107065;1260;59679;-51
2023/08/25 06:36:03;;;;;;;7.90;4.00;;;;;;;23.13;48.66;100561.01;105249;1257;61459;-53
2023/08/25 06:38:31;;;;;;;7.60;4.10;;;;;;;23.21;48.52;100563.89;105001;1262;64450;-58
2023/08/25 06:41:16;;;;;;;7.50;3.70;;;;;;;23.31;48.62;100560.08;105237;1262;61375;-56
2023/08/25 06:43:44;;;;;;;8.90;4.00;;;;;;;23.40;47.71;100554.06;104943;1262;62504;-58
2023/08/25 06:46:11;;;;;;;9.60;3.70;;;;;;;23.47;46.83;100554.21;104940;1259;59753;-60
2023/08/25 06:48:39;;;;;;;12.10;4.20;;;;;;;23.52;46.69;100549.92;104974;1257;59698;-63
2023/08/25 06:51:06;;;;;;;6.70;3.70;;;;;;;23.58;46.35;100548.65;104856;1260;64122;-63
2023/08/25 06:53:34;;;;;;;8.20;3.40;;;;;;;23.64;46.44;100551.17;104981;1262;62006;-60
2023/08/25 06:56:02;;;;;;;6.10;3.10;;;;;;;23.71;45.90;100553.25;105129;1262;64210;-60
2023/08/25 06:58:30;;;;;;;7.40;2.60;;;;;;;23.78;45.94;100554.21;104916;1259;60869;-59
2023/08/25 07:00:58;;;;;;;5.80;2.90;;;;;;;23.86;45.87;100555.06;104852;1259;59869;-59
2023/08/25 07:03:25;;;;;;;7.00;3.10;;;;;;;23.97;45.20;100554.55;104971;1262;64147;-62
2023/08/25 07:05:59;;;;;;;6.50;3.00;;;;;;;24.06;44.88;100553.55;104945;1260;61886;-63
2023/08/25 07:08:52;;;;;;;6.30;3.00;;;;;;;24.15;44.68;100556.52;105514;1260;63824;-60
2023/08/25 07:11:20;;;;;;;6.30;3.10;;;;;;;24.24;44.06;100555.72;104985;1260;59563;-58
2023/08/25 07:13:48;;;;;;;7.10;3.40;;;;;;;24.31;43.64;100554.21;105069;1262;59665;-60
2023/08/25 07:16:16;;;;;;;7.80;2.50;;;;;;;24.36;42.72;100550.32;105026;1258;64610;-60
2023/08/25 07:18:43;;;;;;;7.40;2.80;;;;;;;24.41;42.68;100543.39;104896;1257;60096;-61
2023/08/25 07:21:11;;;;;;;7.80;2.90;;;;;;;24.48;42.31;100537.06;104795;1262;63888;-60
2023/08/25 07:23:40;;;;;;;5.30;2.60;;;;;;;24.55;41.74;100536.27;104747;1261;59265;-60
2023/08/25 07:26:09;;;;;;;8.40;2.80;;;;;;;24.61;41.30;100535.59;104973;1259;59692;-60
2023/08/25 07:28:36;;;;;;;6.20;3.00;;;;;;;24.66;40.86;100535.66;104675;1258;72112;-61
2023/08/25 07:31:04;;;;;;;5.20;2.50;;;;;;;24.70;40.38;100532.09;105031;1262;60189;-60
2023/08/25 07:33:32;;;;;;;5.50;3.00;;;;;;;24.74;40.76;100527.03;105106;1257;63723;-61
2023/08/25 07:36:02;;;;;;;5.40;2.50;;;;;;;24.79;41.22;100527.63;105156;1258;59631;-64
2023/08/25 07:38:30;;;;;;;6.10;2.70;;;;;;;24.86;39.87;100532.23;105339;1256;59544;-64
2023/08/25 07:41:00;;;;;;;8.20;2.90;;;;;;;24.92;39.32;100526.34;105922;1259;62974;-63
2023/08/25 07:43:29;;;;;;;8.90;2.60;;;;;;;24.97;39.27;100529.70;105253;1260;61623;-60
2023/08/25 07:45:57;;;;;;;4.50;2.30;;;;;;;25.05;39.34;100535.35;105242;1257;62528;-61
2023/08/25 07:48:24;;;;;;;5.70;2.50;;;;;;;25.18;39.31;100540.11;105118;1262;59701;-63
2023/08/25 07:50:52;;;;;;;6.50;2.60;;;;;;;25.28;38.87;100539.30;104958;1261;59548;-63
2023/08/25 07:53:19;;;;;;;6.80;2.30;;;;;;;25.38;38.39;100544.17;105985;1259;62836;-63
2023/08/25 07:55:47;;;;;;;4.90;2.20;;;;;;;25.47;37.23;100535.96;105782;1262;60300;-61
2023/08/25 07:58:14;;;;;;;6.30;2.40;;;;;;;25.51;37.56;100531.52;105788;1261;62431;-63
2023/08/25 08:00:43;;;;;;;5.00;2.30;;;;;;;25.56;36.83;100532.16;105865;1257;59586;-60
2023/08/25 08:03:11;;;;;;;6.10;2.50;;;;;;;25.53;37.23;100526.59;105900;1261;61796;-59
2023/08/25 08:05:38;;;;;;;7.90;2.80;;;;;;;25.54;37.16;100523.18;105182;1262;64106;-59
2023/08/25 08:08:06;;;;;;;7.60;2.50;;;;;;;25.57;37.10;100524.08;104907;1262;60099;-62
2023/08/25 08:10:34;;;;;;;4.80;2.40;;;;;;;25.64;37.46;100521.45;104898;1260;63692;-60
2023/08/25 08:13:02;;;;;;;5.80;2.70;;;;;;;25.76;37.77;100520.11;104924;1262;59653;-60
2023/08/25 08:15:30;;;;;;;6.80;3.00;;;;;;;25.87;37.87;100519.44;105031;1257;59741;-62
2023/08/25 08:17:58;;;;;;;5.50;2.50;;;;;;;25.97;37.53;100518.01;105854;1256;62889;-61
2023/08/25 08:20:35;;;;;;;7.60;3.10;;;;;;;26.03;37.70;100521.32;105703;1261;60085;-58
2023/08/25 08:23:56;;;;;;;6.40;2.90;;;;;;;26.06;36.95;100528.30;104902;1259;64250;-55
2023/08/25 08:26:23;;;;;;;12.10;3.90;;;;;;;26.18;36.59;100529.27;105017;1263;59765;-59
2023/08/25 08:28:52;;;;;;;5.40;2.50;;;;;;;26.24;37.26;100529.51;105247;1260;59636;-61
2023/08/25 08:31:19;;;;;;;6.40;2.90;;;;;;;26.33;37.36;100527.83;105484;1257;62823;-59
2023/08/25 08:33:47;;;;;;;6.00;2.50;;;;;;;26.41;37.34;100529.65;105214;1262;61556;-59
2023/08/25 08:36:30;;;;;;;5.80;2.30;;;;;;;26.50;36.84;100530.26;105295;1261;63770;-58
2023/08/25 08:39:07;;;;;;;4.50;2.30;;;;;;;26.59;36.27;100526.59;104936;1264;59648;-61
2023/08/25 08:41:35;;;;;;;5.60;2.80;;;;;;;26.65;36.51;100524.05;104981;1262;59587;-61
2023/08/25 08:44:04;;;;;;;6.60;2.80;;;;;;;26.72;36.31;100517.63;105223;1262;63458;-59
2023/08/25 08:46:31;;;;;;;6.00;2.60;;;;;;;26.78;36.53;100516.70;104993;1261;63254;-58
2023/08/25 08:48:59;;;;;;;6.40;2.60;;;;;;;26.83;36.59;100520.59;104737;1262;63742;-59
2023/08/25 08:51:30;;;;;;;6.10;2.60;;;;;;;26.91;36.20;100528.13;105340;1262;60007;-58
2023/08/25 08:53:58;;;;;;;5.00;2.40;;;;;;;26.97;36.23;100520.95;105179;1261;59676;-59
2023/08/25 08:56:25;;;;;;;6.40;2.50;;;;;;;27.04;36.11;100523.35;104882;1260;64267;-58
2023/08/25 08:58:56;;;;;;;5.40;2.50;;;;;;;27.11;35.68;100521.59;105169;1257;60275;-59
2023/08/25 09:01:23;;;;;;;4.80;2.30;;;;;;;27.17;35.52;100519.13;104332;1263;63855;-60
2023/08/25 09:03:51;;;;;;;5.20;2.50;;;;;;;27.24;35.09;100515.96;104892;1256;59910;-62
2023/08/25 09:06:19;;;;;;;5.00;2.20;;;;;;;27.31;35.14;100517.94;105256;1262;60845;-60
2023/08/25 09:08:47;;;;;;;7.90;2.90;;;;;;;27.36;35.42;100509.70;104958;1265;64127;-60
2023/08/25 09:11:15;;;;;;;8.20;2.90;;;;;;;27.37;35.54;100500.22;104984;1262;60298;-61
2023/08/25 09:13:54;;;;;;;4.90;2.20;;;;;;;27.37;35.21;100495.56;104815;1261;63658;-60
2023/08/25 09:16:22;;;;;;;5.60;2.60;;;;;;;27.39;35.02;100504.48;105080;1262;59725;-59
2023/08/25 09:18:51;;;;;;;6.20;2.60;;;;;;;27.41;34.38;100502.27;105150;1262;59516;-60
2023/08/25 09:21:20;;;;;;;5.80;2.80;;;;;;;27.45;34.53;100501.11;105718;1262;64070;-60
2023/08/25 09:23:56;;;;;;;4.90;2.30;;;;;;;27.49;34.60;100501.38;105039;1262;61294;-59
2023/08/25 09:26:24;;;;;;;7.00;2.70;;;;;;;27.55;34.78;100504.02;105390;1257;63726;-58
2023/08/25 09:28:58;;;;;;;6.80;2.80;;;;;;;27.62;34.52;100500.52;105151;1257;59766;-60
2023/08/25 09:31:28;;;;;;;5.10;2.70;;;;;;;27.68;34.51;100494.83;105156;1262;59624;-60
2023/08/25 09:34:06;;;;;;;5.90;2.50;;;;;;;27.75;34.30;100490.44;105310;1257;64198;-57
2023/08/25 09:36:33;;;;;;;6.30;3.00;;;;;;;27.79;34.10;100494.32;105297;1261;60189;-61
2023/08/25 09:39:01;;;;;;;5.50;2.80;;;;;;;27.78;34.04;100490.13;105101;1263;63722;-63
2023/08/25 09:41:34;;;;;;;6.00;2.80;;;;;;;27.77;34.63;100487.07;104848;1261;59718;-59
2023/08/25 09:44:11;;;;;;;7.90;2.80;;;;;;;27.77;34.54;100483.82;105006;1261;59621;-60
2023/08/25 09:46:47;;;;;;;;;;;;;;;27.81;35.02;100486.45;104418;1272;64093;-61
2023/08/25 09:49:15;;;;;;;6.40;2.80;;;;;;;27.92;34.87;100483.70;104797;1261;61408;-60
2023/08/25 09:51:44;;;;;;;6.40;2.70;;;;;;;28.03;34.30;100483.77;104988;1261;63683;-61
2023/08/25 09:54:13;;;;;;;6.90;2.60;;;;;;;28.10;34.30;100484.88;104693;1257;59638;-58
2023/08/25 09:56:41;;;;;;;6.30;3.20;;;;;;;28.11;34.01;100484.53;105040;1258;60692;-57
2023/08/25 09:59:10;;;;;;;6.40;3.00;;;;;;;28.05;34.18;100483.70;105092;1257;64076;-59
2023/08/25 10:01:42;;;;;;;10.30;2.70;;;;;;;27.95;34.25;100481.52;104693;1262;60118;-60
2023/08/25 10:04:10;;;;;;;6.40;2.60;;;;;;;27.90;34.43;100481.10;107388;1262;63743;-60
2023/08/25 10:06:38;;;;;;;8.40;3.30;;;;;;;27.88;34.52;100478.85;105991;1261;60420;-58
2023/08/25 10:09:06;;;;;;;5.40;2.80;;;;;;;27.84;34.56;100479.16;104910;1261;60339;-57
2023/08/25 10:11:43;;;;;;;7.40;3.00;;;;;;;27.78;34.68;100479.64;104843;1262;63724;-60
2023/08/25 10:14:12;;;;;;;6.20;3.10;;;;;;;27.74;34.73;100475.10;104914;1262;61848;-58
2023/08/25 10:16:51;;;;;;;7.80;3.50;;;;;;;27.72;34.85;100471.44;104961;1263;62444;-59
2023/08/25 10:19:26;;;;;;;8.00;3.10;;;;;;;27.76;34.69;100468.31;104786;1263;60550;-59
2023/08/25 10:21:55;;;;;;;5.00;2.80;;;;;;;27.86;34.47;100468.95;105178;1261;60464;-59
2023/08/25 10:24:23;;;;;;;7.10;3.10;;;;;;;27.96;34.68;100468.13;105100;1263;64986;-58
2023/08/25 10:26:51;;;;;;;9.90;3.10;;;;;;;28.07;34.78;100473.34;104840;1258;63559;-61
2023/08/25 10:29:21;;;;;;;5.20;3.10;;;;;;;28.19;34.05;100472.90;108807;1258;62591;-58
2023/08/25 10:31:50;;;;;;;6.30;3.00;;;;;;;28.33;33.50;100474.50;108845;1257;58243;-60
2023/08/25 10:34:34;;;;;;;6.20;3.40;;;;;;;28.46;33.83;100468.23;107152;1260;60640;-60
2023/08/25 10:37:06;;;;;;;11.00;3.10;;;;;;;28.62;34.07;100466.30;108824;1257;64905;-58
2023/08/25 10:39:56;;;;;;;5.90;3.00;;;;;;;28.77;33.47;100469.14;108866;1257;60106;-60
2023/08/25 10:42:31;;;;;;;4.60;2.40;;;;;;;28.91;32.49;100462.95;105371;1258;64210;-63
2023/08/25 10:45:07;;;;;;;5.50;3.00;;;;;;;29.03;32.47;100466.75;105224;1258;60556;-60
2023/08/25 10:47:41;;;;;;;5.80;3.00;;;;;;;29.11;33.77;100455.33;109104;1254;58518;-61
2023/08/25 10:50:09;;;;;;;6.30;3.30;;;;;;;29.14;33.74;100458.46;107666;1254;64976;-59
2023/08/25 10:52:43;;;;;;;8.30;2.60;;;;;;;29.19;33.18;100462.70;105029;1254;60474;-58
2023/08/25 10:55:40;;;;;;;4.80;2.40;;;;;;;29.30;33.05;100466.03;104924;1264;62464;-66
2023/08/25 10:58:09;;;;;;;6.90;2.50;;;;;;;29.43;32.03;100462.40;104928;1261;60562;-67
2023/08/25 11:00:43;;;;;;;5.80;3.00;;;;;;;29.58;32.08;100462.31;105211;1260;60547;-61
2023/08/25 11:03:11;;;;;;;4.70;2.70;;;;;;;29.74;32.34;100460.69;106580;1254;63629;-58
2023/08/25 11:05:40;;;;;;;5.90;2.90;;;;;;;29.91;31.19;100456.83;105433;1254;61557;-60
2023/08/25 11:08:27;;;;;;;6.50;3.00;;;;;;;30.01;31.00;100453.25;105183;1259;62465;-65
2023/08/25 11:11:09;;;;;;;5.30;2.70;;;;;;;30.10;30.73;100449.58;108036;1257;60448;-61
2023/08/25 11:13:38;;;;;;;6.10;2.50;;;;;;;30.15;30.27;100453.13;105395;1254;60475;-62
2023/08/25 11:16:09;;;;;;;6.30;2.60;;;;;;;30.17;30.49;100444.80;105321;1260;64918;-63
2023/08/25 11:18:43;;;;;;;5.10;2.90;;;;;;;30.25;30.68;100438.76;105653;1254;60354;-62
2023/08/25 11:21:11;;;;;;;7.60;2.90;;;;;;;30.33;30.74;100440.11;105255;1259;63706;-63
2023/08/25 11:23:43;;;;;;;8.20;3.00;;;;;;;30.39;30.61;100444.06;105703;1254;60579;-63
2023/08/25 11:26:18;;;;;;;4.90;2.50;;;;;;;30.43;30.13;100447.52;105733;1255;60783;-65
2023/08/25 11:28:49;;;;;;;9.10;3.20;;;;;;;30.38;29.90;100444.38;105308;1257;64961;-65
2023/08/25 11:31:20;;;;;;;4.60;2.60;;;;;;;30.34;30.41;100437.41;105607;1255;61874;-63
2023/08/25 11:33:49;;;;;;;5.30;2.60;;;;;;;30.36;30.94;100439.17;105445;1255;63722;-63
2023/08/25 11:36:17;;;;;;;7.60;3.10;;;;;;;30.46;30.56;100433.93;105776;1254;60550;-64
2023/08/25 11:38:49;;;;;;;8.00;3.10;;;;;;;30.58;29.96;100433.62;105340;1254;60481;-66